sensor_id;sensor_type;location;lat;lon;timestamp;P1;durP1;ratioP1;P2;durP2;ratioP2
51270;SDS011;37744;50.960;4.136;2023-04-16T00:00:11;9.90;;;4.50;;
51270;SDS011;37744;50.960;4.136;2023-04-16T00:02:37;14.23;;;4.50;;
51270;SDS011;37744;50.960;4.136;2023-04-16T00:05:02;7.22;;;4.35;;
51270;SDS011;37744;50.960;4.136;2023-04-16T00:07:28;11.07;;;4.68;;
51270;SDS011;37744;50.960;4.136;2023-04-16T00:09:53;10.65;;;4.32;;
51270;SDS011;37744;50.960;4.136;2023-04-16T00:12:18;7.80;;;4.72;;
51270;SDS011;37744;50.960;4.136;2023-04-16T00:14:43;7.72;;;4.10;;
51270;SDS011;37744;50.960;4.136;2023-04-16T00:17:10;13.38;;;4.93;;
51270;SDS011;37744;50.960;4.136;2023-04-16T00:19:35;8.55;;;4.53;;
51270;SDS011;37744;50.960;4.136;2023-04-16T00:22:00;11.30;;;4.63;;
51270;SDS011;37744;50.960;4.136;2023-04-16T00:24:25;9.95;;;4.53;;
51270;SDS011;37744;50.960;4.136;2023-04-16T00:26:51;7.72;;;4.63;;
51270;SDS011;37744;50.960;4.136;2023-04-16T00:29:16;13.90;;;4.95;;
51270;SDS011;37744;50.960;4.136;2023-04-16T00:31:41;10.68;;;4.82;;
51270;SDS011;37744;50.960;4.136;2023-04-16T00:34:08;14.02;;;4.60;;
51270;SDS011;37744;50.960;4.136;2023-04-16T00:36:33;17.55;;;5.03;;
51270;SDS011;37744;50.960;4.136;2023-04-16T00:38:59;11.00;;;5.03;;
51270;SDS011;37744;50.960;4.136;2023-04-16T00:41:25;14.10;;;4.82;;
51270;SDS011;37744;50.960;4.136;2023-04-16T00:43:52;7.88;;;4.97;;
51270;SDS011;37744;50.960;4.136;2023-04-16T00:46:21;10.73;;;5.25;;
51270;SDS011;37744;50.960;4.136;2023-04-16T00:48:47;9.82;;;4.90;;
51270;SDS011;37744;50.960;4.136;2023-04-16T00:51:13;12.27;;;5.13;;
51270;SDS011;37744;50.960;4.136;2023-04-16T00:53:39;13.68;;;5.40;;
51270;SDS011;37744;50.960;4.136;2023-04-16T00:56:05;8.13;;;4.35;;
51270;SDS011;37744;50.960;4.136;2023-04-16T00:58:33;11.63;;;5.40;;
51270;SDS011;37744;50.960;4.136;2023-04-16T01:00:58;11.00;;;3.92;;
51270;SDS011;37744;50.960;4.136;2023-04-16T01:03:29;8.10;;;3.55;;
51270;SDS011;37744;50.960;4.136;2023-04-16T01:05:56;8.73;;;4.10;;
51270;SDS011;37744;50.960;4.136;2023-04-16T01:08:21;9.82;;;3.83;;
51270;SDS011;37744;50.960;4.136;2023-04-16T01:10:46;9.85;;;4.15;;
51270;SDS011;37744;50.960;4.136;2023-04-16T01:13:12;10.80;;;4.82;;
51270;SDS011;37744;50.960;4.136;2023-04-16T01:15:37;8.35;;;5.07;;
51270;SDS011;37744;50.960;4.136;2023-04-16T01:18:11;9.73;;;4.20;;
51270;SDS011;37744;50.960;4.136;2023-04-16T01:20:37;4.32;;;3.67;;
51270;SDS011;37744;50.960;4.136;2023-04-16T01:23:03;7.30;;;4.25;;
51270;SDS011;37744;50.960;4.136;2023-04-16T01:25:28;10.65;;;4.45;;
51270;SDS011;37744;50.960;4.136;2023-04-16T01:27:53;11.57;;;4.30;;
51270;SDS011;37744;50.960;4.136;2023-04-16T01:30:18;8.80;;;4.20;;
51270;SDS011;37744;50.960;4.136;2023-04-16T01:32:44;8.13;;;3.83;;
51270;SDS011;37744;50.960;4.136;2023-04-16T01:35:09;8.70;;;3.80;;
51270;SDS011;37744;50.960;4.136;2023-04-16T01:37:34;6.13;;;2.97;;
51270;SDS011;37744;50.960;4.136;2023-04-16T01:40:01;7.32;;;3.28;;
51270;SDS011;37744;50.960;4.136;2023-04-16T01:42:26;7.80;;;3.10;;
51270;SDS011;37744;50.960;4.136;2023-04-16T01:44:52;7.40;;;3.05;;
51270;SDS011;37744;50.960;4.136;2023-04-16T01:47:17;6.72;;;3.13;;
51270;SDS011;37744;50.960;4.136;2023-04-16T01:49:42;9.80;;;2.00;;
51270;SDS011;37744;50.960;4.136;2023-04-16T01:52:09;14.35;;;2.60;;
51270;SDS011;37744;50.960;4.136;2023-04-16T01:54:34;3.67;;;1.98;;
51270;SDS011;37744;50.960;4.136;2023-04-16T01:57:00;7.60;;;2.15;;
51270;SDS011;37744;50.960;4.136;2023-04-16T01:59:26;5.68;;;1.70;;
51270;SDS011;37744;50.960;4.136;2023-04-16T02:01:52;5.97;;;1.63;;
51270;SDS011;37744;50.960;4.136;2023-04-16T02:04:17;8.25;;;2.38;;
51270;SDS011;37744;50.960;4.136;2023-04-16T02:06:43;7.25;;;1.95;;
51270;SDS011;37744;50.960;4.136;2023-04-16T02:09:08;6.00;;;1.27;;
51270;SDS011;37744;50.960;4.136;2023-04-16T02:11:34;11.15;;;1.90;;
51270;SDS011;37744;50.960;4.136;2023-04-16T02:14:00;3.47;;;1.40;;
51270;SDS011;37744;50.960;4.136;2023-04-16T02:16:25;13.15;;;1.80;;
51270;SDS011;37744;50.960;4.136;2023-04-16T02:18:51;6.78;;;1.45;;
51270;SDS011;37744;50.960;4.136;2023-04-16T02:21:17;3.97;;;1.45;;
51270;SDS011;37744;50.960;4.136;2023-04-16T02:23:45;6.97;;;1.45;;
51270;SDS011;37744;50.960;4.136;2023-04-16T02:26:12;5.57;;;1.23;;
51270;SDS011;37744;50.960;4.136;2023-04-16T02:28:37;10.25;;;1.48;;
51270;SDS011;37744;50.960;4.136;2023-04-16T02:31:03;5.38;;;1.25;;
51270;SDS011;37744;50.960;4.136;2023-04-16T02:33:28;6.22;;;1.67;;
51270;SDS011;37744;50.960;4.136;2023-04-16T02:35:56;7.05;;;1.75;;
51270;SDS011;37744;50.960;4.136;2023-04-16T02:38:22;3.65;;;1.33;;
51270;SDS011;37744;50.960;4.136;2023-04-16T02:40:47;6.20;;;1.70;;
51270;SDS011;37744;50.960;4.136;2023-04-16T02:43:12;5.07;;;1.60;;
51270;SDS011;37744;50.960;4.136;2023-04-16T02:45:37;8.35;;;1.83;;
51270;SDS011;37744;50.960;4.136;2023-04-16T02:48:03;7.72;;;1.30;;
51270;SDS011;37744;50.960;4.136;2023-04-16T02:50:29;6.47;;;1.42;;
51270;SDS011;37744;50.960;4.136;2023-04-16T02:52:54;7.03;;;1.80;;
51270;SDS011;37744;50.960;4.136;2023-04-16T02:55:20;6.63;;;1.55;;
51270;SDS011;37744;50.960;4.136;2023-04-16T02:57:45;7.40;;;1.23;;
51270;SDS011;37744;50.960;4.136;2023-04-16T03:00:11;5.45;;;1.40;;
51270;SDS011;37744;50.960;4.136;2023-04-16T03:02:36;7.72;;;1.90;;
51270;SDS011;37744;50.960;4.136;2023-04-16T03:05:02;7.43;;;1.58;;
51270;SDS011;37744;50.960;4.136;2023-04-16T03:07:27;8.55;;;2.17;;
51270;SDS011;37744;50.960;4.136;2023-04-16T03:09:52;6.65;;;1.83;;
51270;SDS011;37744;50.960;4.136;2023-04-16T03:12:19;4.82;;;2.10;;
51270;SDS011;37744;50.960;4.136;2023-04-16T03:14:44;7.43;;;2.03;;
51270;SDS011;37744;50.960;4.136;2023-04-16T03:17:09;5.90;;;2.00;;
51270;SDS011;37744;50.960;4.136;2023-04-16T03:19:36;7.40;;;1.75;;
51270;SDS011;37744;50.960;4.136;2023-04-16T03:22:01;9.05;;;2.20;;
51270;SDS011;37744;50.960;4.136;2023-04-16T03:24:26;7.45;;;1.70;;
51270;SDS011;37744;50.960;4.136;2023-04-16T03:26:53;3.95;;;1.85;;
51270;SDS011;37744;50.960;4.136;2023-04-16T03:29:18;8.07;;;2.22;;
51270;SDS011;37744;50.960;4.136;2023-04-16T03:31:43;7.63;;;1.98;;
51270;SDS011;37744;50.960;4.136;2023-04-16T03:34:09;8.35;;;2.15;;
51270;SDS011;37744;50.960;4.136;2023-04-16T03:36:34;4.72;;;2.13;;
51270;SDS011;37744;50.960;4.136;2023-04-16T03:39:00;5.90;;;1.88;;
51270;SDS011;37744;50.960;4.136;2023-04-16T03:41:25;7.78;;;2.13;;
51270;SDS011;37744;50.960;4.136;2023-04-16T03:43:52;5.13;;;2.15;;
51270;SDS011;37744;50.960;4.136;2023-04-16T03:46:17;9.77;;;2.42;;
51270;SDS011;37744;50.960;4.136;2023-04-16T03:48:42;7.38;;;2.17;;
51270;SDS011;37744;50.960;4.136;2023-04-16T03:51:07;7.90;;;2.28;;
51270;SDS011;37744;50.960;4.136;2023-04-16T03:53:32;3.90;;;2.35;;
51270;SDS011;37744;50.960;4.136;2023-04-16T03:55:58;9.05;;;2.38;;
51270;SDS011;37744;50.960;4.136;2023-04-16T03:58:23;6.93;;;2.10;;
51270;SDS011;37744;50.960;4.136;2023-04-16T04:00:48;6.57;;;2.30;;
51270;SDS011;37744;50.960;4.136;2023-04-16T04:03:13;8.40;;;2.22;;
51270;SDS011;37744;50.960;4.136;2023-04-16T04:05:42;8.32;;;2.20;;
51270;SDS011;37744;50.960;4.136;2023-04-16T04:08:07;12.40;;;2.55;;
51270;SDS011;37744;50.960;4.136;2023-04-16T04:10:35;7.80;;;1.77;;
51270;SDS011;37744;50.960;4.136;2023-04-16T04:13:02;9.00;;;2.53;;
51270;SDS011;37744;50.960;4.136;2023-04-16T04:15:27;11.45;;;2.13;;
51270;SDS011;37744;50.960;4.136;2023-04-16T04:17:52;7.47;;;1.80;;
51270;SDS011;37744;50.960;4.136;2023-04-16T04:20:18;4.65;;;1.80;;
51270;SDS011;37744;50.960;4.136;2023-04-16T04:22:43;6.93;;;2.20;;
51270;SDS011;37744;50.960;4.136;2023-04-16T04:25:09;8.45;;;2.03;;
51270;SDS011;37744;50.960;4.136;2023-04-16T04:27:34;6.00;;;2.10;;
51270;SDS011;37744;50.960;4.136;2023-04-16T04:29:59;7.25;;;1.80;;
51270;SDS011;37744;50.960;4.136;2023-04-16T04:32:25;9.50;;;2.20;;
51270;SDS011;37744;50.960;4.136;2023-04-16T04:34:50;7.28;;;2.17;;
51270;SDS011;37744;50.960;4.136;2023-04-16T04:37:15;11.63;;;2.40;;
51270;SDS011;37744;50.960;4.136;2023-04-16T04:39:41;4.65;;;2.10;;
51270;SDS011;37744;50.960;4.136;2023-04-16T04:42:07;6.57;;;2.03;;
51270;SDS011;37744;50.960;4.136;2023-04-16T04:44:33;5.05;;;2.00;;
51270;SDS011;37744;50.960;4.136;2023-04-16T04:47:00;9.10;;;2.30;;
51270;SDS011;37744;50.960;4.136;2023-04-16T04:49:25;7.55;;;2.20;;
51270;SDS011;37744;50.960;4.136;2023-04-16T04:51:50;6.18;;;2.05;;
51270;SDS011;37744;50.960;4.136;2023-04-16T04:54:16;3.47;;;2.17;;
51270;SDS011;37744;50.960;4.136;2023-04-16T04:56:42;11.75;;;1.88;;
51270;SDS011;37744;50.960;4.136;2023-04-16T04:59:10;4.88;;;1.65;;
51270;SDS011;37744;50.960;4.136;2023-04-16T05:01:36;6.53;;;2.15;;
51270;SDS011;37744;50.960;4.136;2023-04-16T05:04:02;8.05;;;1.70;;
51270;SDS011;37744;50.960;4.136;2023-04-16T05:06:27;7.50;;;2.35;;
51270;SDS011;37744;50.960;4.136;2023-04-16T05:08:52;7.25;;;1.95;;
51270;SDS011;37744;50.960;4.136;2023-04-16T05:11:17;8.10;;;2.10;;
51270;SDS011;37744;50.960;4.136;2023-04-16T05:13:42;6.82;;;1.80;;
51270;SDS011;37744;50.960;4.136;2023-04-16T05:16:09;7.18;;;2.15;;
51270;SDS011;37744;50.960;4.136;2023-04-16T05:18:34;10.57;;;2.78;;
51270;SDS011;37744;50.960;4.136;2023-04-16T05:20:59;6.43;;;2.10;;
51270;SDS011;37744;50.960;4.136;2023-04-16T05:23:25;5.93;;;1.98;;
51270;SDS011;37744;50.960;4.136;2023-04-16T05:25:51;4.43;;;2.08;;
51270;SDS011;37744;50.960;4.136;2023-04-16T05:28:16;3.95;;;2.15;;
51270;SDS011;37744;50.960;4.136;2023-04-16T05:30:42;5.18;;;2.42;;
51270;SDS011;37744;50.960;4.136;2023-04-16T05:33:07;5.80;;;1.80;;
51270;SDS011;37744;50.960;4.136;2023-04-16T05:35:32;6.85;;;2.35;;
51270;SDS011;37744;50.960;4.136;2023-04-16T05:37:58;6.10;;;2.30;;
51270;SDS011;37744;50.960;4.136;2023-04-16T05:40:23;7.93;;;1.98;;
51270;SDS011;37744;50.960;4.136;2023-04-16T05:42:48;5.65;;;2.20;;
51270;SDS011;37744;50.960;4.136;2023-04-16T05:45:14;9.52;;;2.25;;
51270;SDS011;37744;50.960;4.136;2023-04-16T05:47:39;6.85;;;2.75;;
51270;SDS011;37744;50.960;4.136;2023-04-16T05:50:05;11.80;;;2.60;;
51270;SDS011;37744;50.960;4.136;2023-04-16T05:52:30;8.13;;;2.00;;
51270;SDS011;37744;50.960;4.136;2023-04-16T05:54:55;6.82;;;2.45;;
51270;SDS011;37744;50.960;4.136;2023-04-16T05:57:22;10.07;;;2.97;;
51270;SDS011;37744;50.960;4.136;2023-04-16T05:59:47;11.00;;;3.10;;
51270;SDS011;37744;50.960;4.136;2023-04-16T06:02:15;12.38;;;2.90;;
51270;SDS011;37744;50.960;4.136;2023-04-16T06:04:40;8.07;;;2.60;;
51270;SDS011;37744;50.960;4.136;2023-04-16T06:07:06;11.30;;;3.38;;
51270;SDS011;37744;50.960;4.136;2023-04-16T06:09:31;6.38;;;2.67;;
51270;SDS011;37744;50.960;4.136;2023-04-16T06:11:56;9.68;;;3.15;;
51270;SDS011;37744;50.960;4.136;2023-04-16T06:14:22;6.47;;;3.03;;
51270;SDS011;37744;50.960;4.136;2023-04-16T06:16:47;10.30;;;2.88;;
51270;SDS011;37744;50.960;4.136;2023-04-16T06:19:13;7.68;;;3.25;;
51270;SDS011;37744;50.960;4.136;2023-04-16T06:21:39;4.07;;;2.70;;
51270;SDS011;37744;50.960;4.136;2023-04-16T06:24:05;8.75;;;3.13;;
51270;SDS011;37744;50.960;4.136;2023-04-16T06:26:30;10.13;;;3.67;;
51270;SDS011;37744;50.960;4.136;2023-04-16T06:28:56;8.65;;;3.10;;
51270;SDS011;37744;50.960;4.136;2023-04-16T06:31:22;5.32;;;2.90;;
51270;SDS011;37744;50.960;4.136;2023-04-16T06:33:47;9.15;;;3.60;;
51270;SDS011;37744;50.960;4.136;2023-04-16T06:36:12;7.32;;;3.40;;
51270;SDS011;37744;50.960;4.136;2023-04-16T06:38:38;6.30;;;3.83;;
51270;SDS011;37744;50.960;4.136;2023-04-16T06:41:04;8.73;;;3.53;;
51270;SDS011;37744;50.960;4.136;2023-04-16T06:43:29;8.57;;;3.92;;
51270;SDS011;37744;50.960;4.136;2023-04-16T06:45:56;10.93;;;3.50;;
51270;SDS011;37744;50.960;4.136;2023-04-16T06:48:21;8.98;;;3.60;;
51270;SDS011;37744;50.960;4.136;2023-04-16T06:50:47;6.13;;;3.20;;
51270;SDS011;37744;50.960;4.136;2023-04-16T06:53:12;8.32;;;3.38;;
51270;SDS011;37744;50.960;4.136;2023-04-16T06:55:37;6.63;;;3.15;;
51270;SDS011;37744;50.960;4.136;2023-04-16T06:58:02;7.65;;;3.00;;
51270;SDS011;37744;50.960;4.136;2023-04-16T07:00:29;12.75;;;3.63;;
51270;SDS011;37744;50.960;4.136;2023-04-16T07:02:54;6.80;;;3.53;;
51270;SDS011;37744;50.960;4.136;2023-04-16T07:05:19;10.95;;;3.60;;
51270;SDS011;37744;50.960;4.136;2023-04-16T07:07:45;8.20;;;3.83;;
51270;SDS011;37744;50.960;4.136;2023-04-16T07:10:10;7.70;;;3.33;;
51270;SDS011;37744;50.960;4.136;2023-04-16T07:12:36;8.77;;;4.35;;
51270;SDS011;37744;50.960;4.136;2023-04-16T07:15:02;9.57;;;4.72;;
51270;SDS011;37744;50.960;4.136;2023-04-16T07:17:27;13.38;;;3.80;;
51270;SDS011;37744;50.960;4.136;2023-04-16T07:19:52;11.77;;;4.60;;
51270;SDS011;37744;50.960;4.136;2023-04-16T07:22:18;13.00;;;4.55;;
51270;SDS011;37744;50.960;4.136;2023-04-16T07:24:43;12.57;;;4.63;;
51270;SDS011;37744;50.960;4.136;2023-04-16T07:27:08;14.60;;;5.00;;
51270;SDS011;37744;50.960;4.136;2023-04-16T07:29:33;12.82;;;4.93;;
51270;SDS011;37744;50.960;4.136;2023-04-16T07:32:01;12.10;;;4.63;;
51270;SDS011;37744;50.960;4.136;2023-04-16T07:34:27;9.52;;;4.72;;
51270;SDS011;37744;50.960;4.136;2023-04-16T07:36:53;14.68;;;4.53;;
51270;SDS011;37744;50.960;4.136;2023-04-16T07:39:18;11.27;;;5.00;;
51270;SDS011;37744;50.960;4.136;2023-04-16T07:41:44;13.00;;;4.80;;
51270;SDS011;37744;50.960;4.136;2023-04-16T07:44:09;12.15;;;4.53;;
51270;SDS011;37744;50.960;4.136;2023-04-16T07:46:34;15.52;;;4.65;;
51270;SDS011;37744;50.960;4.136;2023-04-16T07:49:01;15.75;;;5.72;;
51270;SDS011;37744;50.960;4.136;2023-04-16T07:51:26;17.08;;;5.88;;
51270;SDS011;37744;50.960;4.136;2023-04-16T07:53:51;14.27;;;5.60;;
51270;SDS011;37744;50.960;4.136;2023-04-16T07:56:16;12.23;;;5.60;;
51270;SDS011;37744;50.960;4.136;2023-04-16T07:58:42;10.82;;;5.38;;
51270;SDS011;37744;50.960;4.136;2023-04-16T08:01:07;14.85;;;5.47;;
51270;SDS011;37744;50.960;4.136;2023-04-16T08:03:32;12.48;;;5.20;;
51270;SDS011;37744;50.960;4.136;2023-04-16T08:05:58;14.02;;;5.55;;
51270;SDS011;37744;50.960;4.136;2023-04-16T08:08:25;17.08;;;5.32;;
51270;SDS011;37744;50.960;4.136;2023-04-16T08:10:50;14.52;;;5.68;;
51270;SDS011;37744;50.960;4.136;2023-04-16T08:13:19;14.82;;;5.88;;
51270;SDS011;37744;50.960;4.136;2023-04-16T08:15:45;14.20;;;5.03;;
51270;SDS011;37744;50.960;4.136;2023-04-16T08:18:11;16.27;;;5.30;;
51270;SDS011;37744;50.960;4.136;2023-04-16T08:20:39;11.65;;;5.15;;
51270;SDS011;37744;50.960;4.136;2023-04-16T08:23:04;13.75;;;5.43;;
51270;SDS011;37744;50.960;4.136;2023-04-16T08:25:30;18.65;;;5.78;;
51270;SDS011;37744;50.960;4.136;2023-04-16T08:27:55;12.40;;;5.20;;
51270;SDS011;37744;50.960;4.136;2023-04-16T08:30:20;11.38;;;5.25;;
51270;SDS011;37744;50.960;4.136;2023-04-16T08:32:46;7.78;;;5.05;;
51270;SDS011;37744;50.960;4.136;2023-04-16T08:35:11;15.70;;;5.78;;
51270;SDS011;37744;50.960;4.136;2023-04-16T08:37:37;11.18;;;5.13;;
51270;SDS011;37744;50.960;4.136;2023-04-16T08:40:03;16.85;;;4.95;;
51270;SDS011;37744;50.960;4.136;2023-04-16T08:42:30;14.57;;;5.25;;
51270;SDS011;37744;50.960;4.136;2023-04-16T08:45:03;15.32;;;5.80;;
51270;SDS011;37744;50.960;4.136;2023-04-16T08:47:31;10.05;;;4.63;;
51270;SDS011;37744;50.960;4.136;2023-04-16T08:49:59;11.40;;;5.57;;
51270;SDS011;37744;50.960;4.136;2023-04-16T08:52:25;11.55;;;4.90;;
51270;SDS011;37744;50.960;4.136;2023-04-16T08:54:56;9.93;;;4.53;;
51270;SDS011;37744;50.960;4.136;2023-04-16T08:57:26;11.25;;;4.80;;
51270;SDS011;37744;50.960;4.136;2023-04-16T08:59:53;12.02;;;4.88;;
51270;SDS011;37744;50.960;4.136;2023-04-16T09:02:18;10.95;;;4.53;;
51270;SDS011;37744;50.960;4.136;2023-04-16T09:04:45;11.15;;;4.30;;
51270;SDS011;37744;50.960;4.136;2023-04-16T09:07:10;12.70;;;5.15;;
51270;SDS011;37744;50.960;4.136;2023-04-16T09:09:36;12.98;;;4.22;;
51270;SDS011;37744;50.960;4.136;2023-04-16T09:12:02;15.48;;;5.30;;
51270;SDS011;37744;50.960;4.136;2023-04-16T09:14:28;17.27;;;7.32;;
51270;SDS011;37744;50.960;4.136;2023-04-16T09:16:54;9.30;;;4.63;;
51270;SDS011;37744;50.960;4.136;2023-04-16T09:19:21;9.35;;;4.35;;
51270;SDS011;37744;50.960;4.136;2023-04-16T09:21:47;8.93;;;3.83;;
51270;SDS011;37744;50.960;4.136;2023-04-16T09:24:12;9.35;;;4.90;;
51270;SDS011;37744;50.960;4.136;2023-04-16T09:26:37;8.90;;;4.32;;
51270;SDS011;37744;50.960;4.136;2023-04-16T09:29:03;14.25;;;4.45;;
51270;SDS011;37744;50.960;4.136;2023-04-16T09:31:28;8.45;;;4.03;;
51270;SDS011;37744;50.960;4.136;2023-04-16T09:34:06;10.07;;;4.05;;
51270;SDS011;37744;50.960;4.136;2023-04-16T09:36:33;12.85;;;4.57;;
51270;SDS011;37744;50.960;4.136;2023-04-16T09:38:58;13.07;;;3.92;;
51270;SDS011;37744;50.960;4.136;2023-04-16T09:41:24;5.85;;;3.53;;
51270;SDS011;37744;50.960;4.136;2023-04-16T09:43:58;11.70;;;4.82;;
51270;SDS011;37744;50.960;4.136;2023-04-16T09:46:24;11.05;;;3.78;;
51270;SDS011;37744;50.960;4.136;2023-04-16T09:48:53;10.75;;;3.90;;
51270;SDS011;37744;50.960;4.136;2023-04-16T09:51:18;11.32;;;4.05;;
51270;SDS011;37744;50.960;4.136;2023-04-16T09:53:45;10.82;;;4.15;;
51270;SDS011;37744;50.960;4.136;2023-04-16T09:56:10;11.10;;;4.40;;
51270;SDS011;37744;50.960;4.136;2023-04-16T09:58:36;9.98;;;4.30;;
51270;SDS011;37744;50.960;4.136;2023-04-16T10:01:09;9.60;;;4.20;;
51270;SDS011;37744;50.960;4.136;2023-04-16T10:03:35;14.63;;;4.80;;
51270;SDS011;37744;50.960;4.136;2023-04-16T10:06:13;10.25;;;4.13;;
51270;SDS011;37744;50.960;4.136;2023-04-16T10:08:42;10.07;;;3.88;;
51270;SDS011;37744;50.960;4.136;2023-04-16T10:11:07;10.43;;;4.18;;
51270;SDS011;37744;50.960;4.136;2023-04-16T10:13:33;12.30;;;5.05;;
51270;SDS011;37744;50.960;4.136;2023-04-16T10:15:58;14.30;;;5.18;;
51270;SDS011;37744;50.960;4.136;2023-04-16T10:18:24;13.57;;;4.95;;
51270;SDS011;37744;50.960;4.136;2023-04-16T10:20:50;15.52;;;5.45;;
51270;SDS011;37744;50.960;4.136;2023-04-16T10:23:15;13.20;;;4.40;;
51270;SDS011;37744;50.960;4.136;2023-04-16T10:25:41;11.45;;;5.22;;
51270;SDS011;37744;50.960;4.136;2023-04-16T10:28:10;17.55;;;5.90;;
51270;SDS011;37744;50.960;4.136;2023-04-16T10:30:37;12.40;;;5.50;;
51270;SDS011;37744;50.960;4.136;2023-04-16T10:33:02;11.60;;;5.57;;
51270;SDS011;37744;50.960;4.136;2023-04-16T10:35:29;12.10;;;5.90;;
51270;SDS011;37744;50.960;4.136;2023-04-16T10:38:19;11.80;;;5.25;;
51270;SDS011;37744;50.960;4.136;2023-04-16T10:40:43;14.75;;;7.80;;
51270;SDS011;37744;50.960;4.136;2023-04-16T10:43:10;11.80;;;5.47;;
51270;SDS011;37744;50.960;4.136;2023-04-16T10:45:41;9.80;;;5.57;;
51270;SDS011;37744;50.960;4.136;2023-04-16T10:48:06;15.32;;;5.38;;
51270;SDS011;37744;50.960;4.136;2023-04-16T10:50:36;13.23;;;4.90;;
51270;SDS011;37744;50.960;4.136;2023-04-16T10:53:15;10.90;;;4.47;;
51270;SDS011;37744;50.960;4.136;2023-04-16T10:55:43;9.38;;;4.57;;
51270;SDS011;37744;50.960;4.136;2023-04-16T10:58:29;15.10;;;4.60;;
51270;SDS011;37744;50.960;4.136;2023-04-16T11:00:54;11.50;;;4.47;;
51270;SDS011;37744;50.960;4.136;2023-04-16T11:03:22;15.48;;;4.20;;
51270;SDS011;37744;50.960;4.136;2023-04-16T11:05:49;10.52;;;4.05;;
51270;SDS011;37744;50.960;4.136;2023-04-16T11:08:14;11.48;;;5.10;;
51270;SDS011;37744;50.960;4.136;2023-04-16T11:10:42;9.65;;;4.95;;
51270;SDS011;37744;50.960;4.136;2023-04-16T11:13:07;14.90;;;5.72;;
51270;SDS011;37744;50.960;4.136;2023-04-16T11:15:36;14.77;;;6.22;;
51270;SDS011;37744;50.960;4.136;2023-04-16T11:18:02;17.95;;;6.35;;
51270;SDS011;37744;50.960;4.136;2023-04-16T11:20:28;13.35;;;5.70;;
51270;SDS011;37744;50.960;4.136;2023-04-16T11:22:53;18.83;;;6.57;;
51270;SDS011;37744;50.960;4.136;2023-04-16T11:25:19;16.52;;;5.90;;
51270;SDS011;37744;50.960;4.136;2023-04-16T11:27:47;14.75;;;6.00;;
51270;SDS011;37744;50.960;4.136;2023-04-16T11:30:12;18.58;;;7.18;;
51270;SDS011;37744;50.960;4.136;2023-04-16T11:32:38;16.77;;;8.02;;
51270;SDS011;37744;50.960;4.136;2023-04-16T11:35:06;16.88;;;8.43;;
51270;SDS011;37744;50.960;4.136;2023-04-16T11:37:37;17.55;;;7.95;;
51270;SDS011;37744;50.960;4.136;2023-04-16T11:40:03;19.10;;;7.38;;
51270;SDS011;37744;50.960;4.136;2023-04-16T11:42:35;10.48;;;6.63;;
51270;SDS011;37744;50.960;4.136;2023-04-16T11:45:01;12.52;;;6.75;;
51270;SDS011;37744;50.960;4.136;2023-04-16T11:47:28;17.02;;;6.90;;
51270;SDS011;37744;50.960;4.136;2023-04-16T11:49:53;13.60;;;7.18;;
51270;SDS011;37744;50.960;4.136;2023-04-16T11:52:25;15.35;;;6.10;;
51270;SDS011;37744;50.960;4.136;2023-04-16T11:54:51;17.13;;;7.00;;
51270;SDS011;37744;50.960;4.136;2023-04-16T11:57:22;14.07;;;6.65;;
51270;SDS011;37744;50.960;4.136;2023-04-16T11:59:48;17.75;;;6.72;;
51270;SDS011;37744;50.960;4.136;2023-04-16T12:02:13;13.98;;;8.35;;
51270;SDS011;37744;50.960;4.136;2023-04-16T12:04:38;15.63;;;6.47;;
51270;SDS011;37744;50.960;4.136;2023-04-16T12:07:07;12.95;;;6.55;;
51270;SDS011;37744;50.960;4.136;2023-04-16T12:09:33;14.60;;;6.80;;
51270;SDS011;37744;50.960;4.136;2023-04-16T12:12:01;16.27;;;8.38;;
51270;SDS011;37744;50.960;4.136;2023-04-16T12:14:27;14.88;;;6.47;;
51270;SDS011;37744;50.960;4.136;2023-04-16T12:16:52;14.20;;;5.90;;
51270;SDS011;37744;50.960;4.136;2023-04-16T12:19:20;18.85;;;6.82;;
51270;SDS011;37744;50.960;4.136;2023-04-16T12:21:46;19.73;;;6.28;;
51270;SDS011;37744;50.960;4.136;2023-04-16T12:24:13;13.23;;;5.97;;
51270;SDS011;37744;50.960;4.136;2023-04-16T12:26:40;13.75;;;5.63;;
51270;SDS011;37744;50.960;4.136;2023-04-16T12:31:42;17.45;;;6.40;;
51270;SDS011;37744;50.960;4.136;2023-04-16T12:34:08;14.73;;;5.78;;
51270;SDS011;37744;50.960;4.136;2023-04-16T12:36:34;15.00;;;5.80;;
51270;SDS011;37744;50.960;4.136;2023-04-16T12:39:00;17.40;;;6.45;;
51270;SDS011;37744;50.960;4.136;2023-04-16T12:41:25;18.67;;;10.30;;
51270;SDS011;37744;50.960;4.136;2023-04-16T12:43:51;16.30;;;6.90;;
51270;SDS011;37744;50.960;4.136;2023-04-16T12:46:18;11.65;;;6.15;;
51270;SDS011;37744;50.960;4.136;2023-04-16T12:48:44;14.77;;;6.20;;
51270;SDS011;37744;50.960;4.136;2023-04-16T12:51:10;16.80;;;6.57;;
51270;SDS011;37744;50.960;4.136;2023-04-16T12:53:35;11.50;;;7.22;;
51270;SDS011;37744;50.960;4.136;2023-04-16T12:56:01;13.25;;;7.13;;
51270;SDS011;37744;50.960;4.136;2023-04-16T12:58:26;14.10;;;7.82;;
51270;SDS011;37744;50.960;4.136;2023-04-16T13:00:52;11.75;;;7.07;;
51270;SDS011;37744;50.960;4.136;2023-04-16T13:03:17;13.70;;;6.97;;
51270;SDS011;37744;50.960;4.136;2023-04-16T13:05:44;15.23;;;7.15;;
51270;SDS011;37744;50.960;4.136;2023-04-16T13:08:10;13.65;;;6.88;;
51270;SDS011;37744;50.960;4.136;2023-04-16T13:10:35;12.25;;;7.03;;
51270;SDS011;37744;50.960;4.136;2023-04-16T13:13:01;13.75;;;7.13;;
51270;SDS011;37744;50.960;4.136;2023-04-16T13:15:26;12.68;;;6.90;;
51270;SDS011;37744;50.960;4.136;2023-04-16T13:17:52;11.45;;;6.47;;
51270;SDS011;37744;50.960;4.136;2023-04-16T13:20:18;11.23;;;6.60;;
51270;SDS011;37744;50.960;4.136;2023-04-16T13:22:44;12.23;;;6.82;;
51270;SDS011;37744;50.960;4.136;2023-04-16T13:25:10;10.10;;;7.28;;
51270;SDS011;37744;50.960;4.136;2023-04-16T13:27:36;9.63;;;6.32;;
51270;SDS011;37744;50.960;4.136;2023-04-16T13:30:02;12.25;;;6.97;;
51270;SDS011;37744;50.960;4.136;2023-04-16T13:32:27;9.27;;;5.32;;
51270;SDS011;37744;50.960;4.136;2023-04-16T13:34:53;11.23;;;5.90;;
51270;SDS011;37744;50.960;4.136;2023-04-16T13:37:18;9.60;;;5.68;;
51270;SDS011;37744;50.960;4.136;2023-04-16T13:39:43;9.77;;;5.28;;
51270;SDS011;37744;50.960;4.136;2023-04-16T13:42:09;11.38;;;5.57;;
51270;SDS011;37744;50.960;4.136;2023-04-16T13:44:35;13.88;;;6.20;;
51270;SDS011;37744;50.960;4.136;2023-04-16T13:47:02;10.07;;;5.82;;
51270;SDS011;37744;50.960;4.136;2023-04-16T13:49:27;9.10;;;5.78;;
51270;SDS011;37744;50.960;4.136;2023-04-16T13:51:52;8.52;;;5.90;;
51270;SDS011;37744;50.960;4.136;2023-04-16T13:54:18;9.90;;;5.80;;
51270;SDS011;37744;50.960;4.136;2023-04-16T13:56:43;10.45;;;5.80;;
51270;SDS011;37744;50.960;4.136;2023-04-16T13:59:08;12.98;;;5.63;;
51270;SDS011;37744;50.960;4.136;2023-04-16T14:01:34;12.85;;;5.78;;
51270;SDS011;37744;50.960;4.136;2023-04-16T14:03:59;15.82;;;6.53;;
51270;SDS011;37744;50.960;4.136;2023-04-16T14:06:29;23.85;;;13.98;;
51270;SDS011;37744;50.960;4.136;2023-04-16T14:08:56;11.70;;;5.85;;
51270;SDS011;37744;50.960;4.136;2023-04-16T14:11:21;11.80;;;5.85;;
51270;SDS011;37744;50.960;4.136;2023-04-16T14:13:47;10.50;;;5.93;;
51270;SDS011;37744;50.960;4.136;2023-04-16T14:16:13;11.90;;;5.78;;
51270;SDS011;37744;50.960;4.136;2023-04-16T14:18:39;8.80;;;6.10;;
51270;SDS011;37744;50.960;4.136;2023-04-16T14:21:07;10.63;;;6.32;;
51270;SDS011;37744;50.960;4.136;2023-04-16T14:23:32;8.48;;;5.75;;
51270;SDS011;37744;50.960;4.136;2023-04-16T14:25:58;13.35;;;5.43;;
51270;SDS011;37744;50.960;4.136;2023-04-16T14:28:23;12.07;;;5.90;;
51270;SDS011;37744;50.960;4.136;2023-04-16T14:30:48;11.57;;;6.32;;
51270;SDS011;37744;50.960;4.136;2023-04-16T14:33:14;9.93;;;6.07;;
51270;SDS011;37744;50.960;4.136;2023-04-16T14:35:39;9.57;;;5.70;;